createdAt,value
2022-11-30T00:01:51.407Z,20.63
2022-11-30T00:04:19.209Z,19.77
2022-11-30T00:06:46.621Z,19.75
2022-11-30T00:09:15.339Z,21.40
2022-11-30T00:11:42.804Z,21.38
2022-11-30T00:14:10.889Z,21.88
2022-11-30T00:16:38.531Z,21.98
2022-11-30T00:19:06.633Z,21.50
2022-11-30T00:21:34.553Z,21.95
2022-11-30T00:24:02.130Z,21.15
2022-11-30T00:26:29.928Z,22.35
2022-11-30T00:28:57.356Z,22.67
2022-11-30T00:31:25.246Z,21.50
2022-11-30T00:33:52.729Z,21.85
2022-11-30T00:36:22.218Z,22.02
2022-11-30T00:38:50.554Z,23.33
2022-11-30T00:41:18.659Z,22.70
2022-11-30T00:43:46.262Z,22.35
2022-11-30T00:46:13.853Z,22.75
2022-11-30T00:48:41.760Z,21.85
2022-11-30T00:51:12.213Z,23.23
2022-11-30T00:56:08.530Z,21.75
2022-11-30T00:58:36.341Z,22.15
2022-11-30T01:03:41.851Z,21.58
2022-11-30T01:06:10.489Z,24.33
2022-11-30T01:08:38.226Z,21.33
2022-11-30T01:11:12.908Z,22.38
2022-11-30T01:13:41.065Z,22.65
2022-11-30T01:16:13.232Z,23.42
2022-11-30T01:18:40.918Z,24.17
2022-11-30T01:21:13.363Z,23.77
2022-11-30T01:23:41.540Z,23.80
2022-11-30T01:26:09.469Z,23.30
2022-11-30T01:28:37.480Z,23.33
2022-11-30T01:31:08.950Z,22.13
2022-11-30T01:33:40.134Z,23.27
2022-11-30T01:36:08.014Z,24.52
2022-11-30T01:38:37.545Z,23.73
2022-11-30T01:41:06.208Z,22.85
2022-11-30T01:43:53.728Z,24.25
2022-11-30T01:46:30.280Z,24.08
2022-11-30T01:49:02.256Z,23.15
2022-11-30T01:51:33.919Z,24.10
2022-11-30T01:54:07.137Z,23.27
2022-11-30T01:56:35.009Z,23.85
2022-11-30T01:59:03.154Z,23.08
2022-11-30T02:01:31.413Z,24.30
2022-11-30T02:04:09.853Z,23.92
2022-11-30T02:06:37.635Z,23.80
2022-11-30T02:09:05.283Z,23.55
2022-11-30T02:11:34.670Z,24.08
2022-11-30T02:14:15.237Z,24.23
2022-11-30T02:19:29.257Z,23.08
2022-11-30T02:22:03.465Z,22.15
2022-11-30T02:24:46.727Z,22.33
2022-11-30T02:27:14.512Z,22.60
2022-11-30T02:29:44.993Z,24.75
2022-11-30T02:32:30.456Z,22.60
2022-11-30T02:34:58.189Z,23.13
2022-11-30T02:37:26.543Z,22.92
2022-11-30T02:39:54.369Z,22.52
2022-11-30T02:42:21.887Z,23.48
2022-11-30T02:44:50.447Z,22.60
2022-11-30T02:47:54.061Z,23.55
2022-11-30T02:50:39.064Z,22.77
2022-11-30T02:53:07.513Z,23.65
2022-11-30T02:55:35.171Z,22.55
2022-11-30T02:58:06.429Z,22.05
2022-11-30T03:00:34.236Z,21.95
2022-11-30T03:03:02.765Z,24.17
2022-11-30T03:05:30.562Z,23.05
2022-11-30T03:07:59.000Z,24.02
2022-11-30T03:10:26.756Z,23.42
2022-11-30T03:12:58.587Z,21.73
2022-11-30T03:15:26.616Z,22.52
2022-11-30T03:17:54.296Z,21.25
2022-11-30T03:20:21.725Z,20.85
2022-11-30T03:22:49.464Z,21.08
2022-11-30T03:25:16.900Z,21.17
2022-11-30T03:27:44.628Z,22.25
2022-11-30T03:30:12.421Z,22.05
2022-11-30T03:32:39.954Z,21.25
2022-11-30T03:35:08.259Z,21.85
2022-11-30T03:37:35.887Z,21.75
2022-11-30T03:40:05.466Z,22.30
2022-11-30T03:42:34.122Z,20.20
2022-11-30T03:45:02.826Z,21.90
2022-11-30T03:47:30.378Z,22.75
2022-11-30T03:49:58.308Z,22.52
2022-11-30T03:52:25.747Z,22.30
2022-11-30T03:54:53.100Z,20.98
2022-11-30T03:57:20.900Z,20.63
2022-11-30T03:59:48.434Z,20.42
2022-11-30T04:02:16.327Z,21.63
2022-11-30T04:04:44.083Z,22.10
2022-11-30T04:07:11.761Z,21.67
2022-11-30T04:09:39.355Z,20.38
2022-11-30T04:12:07.087Z,21.30
2022-11-30T04:14:39.953Z,20.60
2022-11-30T04:17:07.640Z,22.15
2022-11-30T04:19:35.223Z,21.40
2022-11-30T04:22:06.783Z,21.00
2022-11-30T04:24:34.363Z,22.55
2022-11-30T04:27:05.149Z,22.05
2022-11-30T04:29:33.773Z,21.42
2022-11-30T04:32:02.091Z,21.83
2022-11-30T04:34:32.143Z,21.98
2022-11-30T04:37:00.619Z,21.17
2022-11-30T04:39:28.458Z,21.73
2022-11-30T04:41:56.638Z,21.52
2022-11-30T04:44:24.282Z,21.77
2022-11-30T04:46:51.897Z,21.08
2022-11-30T04:49:20.108Z,21.35
2022-11-30T04:51:47.952Z,22.17
2022-11-30T04:54:15.661Z,21.10
2022-11-30T04:56:43.316Z,20.92
2022-11-30T04:59:10.927Z,20.33
2022-11-30T05:01:38.790Z,20.48
2022-11-30T05:04:06.655Z,19.95
2022-11-30T05:06:35.468Z,19.15
2022-11-30T05:09:04.116Z,19.83
2022-11-30T05:11:31.952Z,19.45
2022-11-30T05:13:59.792Z,19.08
2022-11-30T05:16:27.287Z,19.60
2022-11-30T05:18:54.997Z,20.38
2022-11-30T05:21:22.544Z,19.02
2022-11-30T05:23:51.766Z,18.77
2022-11-30T05:26:19.389Z,18.15
2022-11-30T05:28:47.052Z,18.58
2022-11-30T05:31:14.599Z,17.98
2022-11-30T05:33:42.392Z,17.63
2022-11-30T05:36:10.799Z,18.33
2022-11-30T05:38:38.656Z,17.60
2022-11-30T05:41:06.227Z,16.77
2022-11-30T05:43:35.002Z,17.00
2022-11-30T05:46:05.008Z,17.15
2022-11-30T05:48:33.658Z,17.15
2022-11-30T05:51:10.160Z,17.30
2022-11-30T05:53:38.487Z,16.33
2022-11-30T05:56:07.351Z,17.63
2022-11-30T05:58:36.230Z,16.55
2022-11-30T06:01:04.681Z,18.80
2022-11-30T06:03:33.992Z,18.63
2022-11-30T06:06:03.670Z,18.50
2022-11-30T06:08:32.976Z,18.50
2022-11-30T06:11:09.756Z,19.17
2022-11-30T06:13:37.909Z,19.02
2022-11-30T06:16:08.917Z,19.05
2022-11-30T06:18:38.766Z,18.27
2022-11-30T06:21:08.352Z,19.48
2022-11-30T06:23:36.352Z,14.93
2022-11-30T06:26:13.689Z,14.45
2022-11-30T06:28:46.609Z,13.73
2022-11-30T06:31:15.990Z,14.13
2022-11-30T06:33:43.981Z,10.55
2022-11-30T06:36:14.865Z,10.02
2022-11-30T06:38:42.593Z,7.13
2022-11-30T06:41:12.597Z,7.72
2022-11-30T06:43:40.807Z,7.65
2022-11-30T06:46:08.595Z,9.50
2022-11-30T06:48:36.845Z,12.60
2022-11-30T06:51:11.552Z,14.32
2022-11-30T06:53:44.106Z,14.00
2022-11-30T06:56:12.364Z,9.18
2022-11-30T06:58:40.647Z,9.00
2022-11-30T07:01:09.680Z,7.32
2022-11-30T07:03:37.600Z,7.10
2022-11-30T07:06:13.296Z,6.28
2022-11-30T07:08:41.812Z,5.95
2022-11-30T07:11:10.399Z,7.20
2022-11-30T07:13:38.301Z,7.93
2022-11-30T07:16:06.910Z,9.73
2022-11-30T07:18:35.444Z,9.25
2022-11-30T07:21:05.560Z,9.57
2022-11-30T07:23:56.561Z,9.35
2022-11-30T07:26:24.907Z,10.10
2022-11-30T07:28:58.696Z,9.75
2022-11-30T07:31:27.874Z,9.90
2022-11-30T07:33:55.857Z,10.20
2022-11-30T07:36:26.294Z,9.40
2022-11-30T07:38:54.216Z,8.63
2022-11-30T07:41:22.191Z,10.13
2022-11-30T07:43:50.341Z,9.52
2022-11-30T07:46:21.211Z,8.23
2022-11-30T07:48:48.940Z,8.07
2022-11-30T07:51:18.357Z,8.73
2022-11-30T07:53:46.059Z,8.70
2022-11-30T07:56:15.401Z,8.73
2022-11-30T07:58:43.477Z,10.23
2022-11-30T08:01:12.701Z,9.93
2022-11-30T08:03:40.555Z,10.23
2022-11-30T08:06:09.716Z,11.15
2022-11-30T08:08:41.404Z,10.95
2022-11-30T08:11:10.814Z,9.73
2022-11-30T08:13:38.315Z,10.60
2022-11-30T08:16:10.263Z,10.45
2022-11-30T08:18:38.619Z,10.50
2022-11-30T08:21:07.290Z,10.50
2022-11-30T08:23:36.387Z,10.25
2022-11-30T08:26:08.840Z,9.77
2022-11-30T08:28:37.297Z,11.52
2022-11-30T08:31:12.126Z,11.57
2022-11-30T08:33:40.189Z,11.73
2022-11-30T08:36:09.418Z,12.32
2022-11-30T08:38:37.677Z,12.30
2022-11-30T08:41:06.451Z,12.82
2022-11-30T08:43:36.206Z,13.15
2022-11-30T08:46:27.374Z,13.40
2022-11-30T08:49:12.580Z,12.75
2022-11-30T08:52:14.646Z,13.25
2022-11-30T08:54:30.711Z,14.43
2022-11-30T08:56:59.619Z,14.18
2022-11-30T08:59:27.359Z,14.98
2022-11-30T09:01:55.176Z,14.60
2022-11-30T09:04:22.953Z,14.32
2022-11-30T09:06:50.612Z,14.82
2022-11-30T09:09:18.569Z,15.05
2022-11-30T09:11:46.371Z,14.02
2022-11-30T09:14:14.362Z,13.93
2022-11-30T09:16:42.372Z,14.00
2022-11-30T09:19:10.707Z,15.10
2022-11-30T09:21:38.776Z,16.15
2022-11-30T09:24:07.088Z,14.98
2022-11-30T09:26:34.684Z,17.20
2022-11-30T09:29:06.133Z,15.45
2022-11-30T09:31:35.164Z,19.55
2022-11-30T09:34:03.531Z,22.17
2022-11-30T09:36:32.201Z,22.30
2022-11-30T09:39:00.035Z,22.85
2022-11-30T09:41:46.698Z,22.83
2022-11-30T09:44:33.862Z,21.45
2022-11-30T09:47:20.540Z,21.90
2022-11-30T09:49:49.919Z,22.95
2022-11-30T09:52:50.637Z,28.17
2022-11-30T09:55:28.842Z,27.60
2022-11-30T09:57:59.264Z,29.48
2022-11-30T10:02:55.825Z,29.67
2022-11-30T10:05:27.786Z,33.53
2022-11-30T10:08:16.748Z,32.90
2022-11-30T10:10:46.741Z,34.10
2022-11-30T10:13:24.401Z,35.63
2022-11-30T10:16:20.979Z,33.75
2022-11-30T10:18:48.747Z,35.42
2022-11-30T10:21:20.203Z,34.67
2022-11-30T10:24:04.511Z,34.58
2022-11-30T10:26:38.272Z,34.83
2022-11-30T10:29:27.420Z,32.92
2022-11-30T10:31:58.536Z,33.20
2022-11-30T10:34:34.771Z,34.72
2022-11-30T10:37:12.386Z,31.90
2022-11-30T10:40:02.642Z,31.45
2022-11-30T10:42:35.882Z,31.70
2022-11-30T10:45:09.678Z,30.50
2022-11-30T10:47:39.041Z,29.95
2022-11-30T10:50:07.434Z,30.45
2022-11-30T10:52:49.295Z,29.30
2022-11-30T10:55:21.044Z,27.95
2022-11-30T10:57:52.401Z,27.35
2022-11-30T11:00:20.494Z,28.45
2022-11-30T11:02:50.823Z,28.85
2022-11-30T11:07:51.961Z,26.77
2022-11-30T11:10:29.229Z,24.70
2022-11-30T11:13:05.214Z,23.92
2022-11-30T11:15:34.259Z,22.75
2022-11-30T11:18:17.528Z,22.00
2022-11-30T11:20:45.819Z,23.17
2022-11-30T11:23:34.442Z,20.85
2022-11-30T11:26:03.637Z,19.25
2022-11-30T11:28:32.883Z,20.63
2022-11-30T11:31:01.006Z,19.05
2022-11-30T11:33:30.418Z,16.65
2022-11-30T11:36:07.719Z,17.27
2022-11-30T11:38:43.788Z,16.15
2022-11-30T11:41:20.395Z,16.05
2022-11-30T11:44:06.947Z,15.15
2022-11-30T11:46:39.612Z,15.38
2022-11-30T11:49:21.616Z,15.00
2022-11-30T11:52:00.128Z,15.05
2022-11-30T11:54:38.985Z,14.30
2022-11-30T11:57:09.994Z,13.20
2022-11-30T11:59:41.557Z,13.57
2022-11-30T12:02:09.338Z,13.77
2022-11-30T12:04:41.663Z,13.23
2022-11-30T12:07:22.946Z,12.10
2022-11-30T12:10:43.488Z,10.63
2022-11-30T12:13:02.171Z,11.02
2022-11-30T12:15:33.932Z,11.32
2022-11-30T12:18:07.800Z,11.70
2022-11-30T12:20:55.098Z,11.23
2022-11-30T12:23:35.222Z,12.18
2022-11-30T12:26:13.404Z,12.15
2022-11-30T12:28:41.090Z,11.90
2022-11-30T12:31:16.383Z,12.52
2022-11-30T12:33:47.708Z,13.30
2022-11-30T12:36:34.152Z,13.63
2022-11-30T12:39:28.726Z,13.90
2022-11-30T12:42:01.004Z,14.65
2022-11-30T12:44:42.865Z,13.98
2022-11-30T12:47:21.217Z,15.15
2022-11-30T12:50:02.386Z,14.50
2022-11-30T12:52:49.382Z,13.30
2022-11-30T12:55:38.016Z,13.95
2022-11-30T12:58:14.510Z,13.98
2022-11-30T13:00:57.570Z,13.30
2022-11-30T13:03:42.699Z,14.18
2022-11-30T13:06:15.888Z,14.07
2022-11-30T13:08:50.760Z,15.90
2022-11-30T13:11:21.163Z,14.85
2022-11-30T13:16:18.876Z,14.50
2022-11-30T13:18:48.193Z,15.05
2022-11-30T13:21:34.548Z,15.35
2022-11-30T13:24:29.192Z,14.73
2022-11-30T13:26:59.930Z,14.60
2022-11-30T13:29:39.744Z,15.20
2022-11-30T13:32:34.266Z,14.18
2022-11-30T13:35:25.669Z,14.57
2022-11-30T13:38:35.155Z,15.63
2022-11-30T13:40:57.305Z,15.98
2022-11-30T13:43:26.006Z,16.57
2022-11-30T13:46:24.194Z,15.88
2022-11-30T13:49:15.700Z,15.52
2022-11-30T13:51:43.406Z,15.45
2022-11-30T13:54:29.841Z,15.13
2022-11-30T13:56:57.394Z,15.18
2022-11-30T13:59:24.766Z,15.05
2022-11-30T14:01:55.604Z,15.43
2022-11-30T14:07:01.034Z,15.90
2022-11-30T14:09:42.063Z,15.38
2022-11-30T14:12:36.715Z,14.68
2022-11-30T14:15:24.362Z,13.75
2022-11-30T14:17:56.615Z,14.70
2022-11-30T14:20:25.634Z,14.88
2022-11-30T14:22:53.707Z,15.70
2022-11-30T14:25:21.971Z,15.07
2022-11-30T14:27:51.843Z,15.57
2022-11-30T14:30:21.171Z,15.57
2022-11-30T14:33:00.741Z,13.68
2022-11-30T14:35:30.869Z,15.35
2022-11-30T14:37:59.134Z,14.82
2022-11-30T14:40:29.929Z,15.15
2022-11-30T14:42:58.643Z,14.90
2022-11-30T14:45:28.535Z,14.52
2022-11-30T14:48:10.872Z,13.80
2022-11-30T14:50:43.120Z,14.23
2022-11-30T14:53:16.916Z,14.02
2022-11-30T14:55:52.304Z,13.73
2022-11-30T14:58:39.852Z,13.68
2022-11-30T15:01:23.804Z,13.73
2022-11-30T15:03:53.019Z,13.55
2022-11-30T15:06:23.595Z,13.57
2022-11-30T15:08:56.283Z,13.15
2022-11-30T15:11:24.037Z,13.40
2022-11-30T15:13:54.566Z,13.65
2022-11-30T15:18:51.721Z,12.90
2022-11-30T15:21:27.136Z,12.98
2022-11-30T15:23:58.917Z,13.00
2022-11-30T15:26:29.528Z,12.15
2022-11-30T15:28:58.655Z,13.85
2022-11-30T15:31:29.263Z,13.68
2022-11-30T15:36:32.841Z,13.93
2022-11-30T15:39:03.433Z,14.00
2022-11-30T15:41:34.175Z,15.00
2022-11-30T15:44:03.823Z,14.55
2022-11-30T15:46:32.457Z,15.35
2022-11-30T15:49:18.668Z,14.48
2022-11-30T15:51:48.665Z,14.88
2022-11-30T15:54:18.080Z,15.35
2022-11-30T15:56:56.691Z,16.48
2022-11-30T15:59:25.492Z,16.58
2022-11-30T16:02:14.737Z,15.63
2022-11-30T16:04:58.697Z,16.33
2022-11-30T16:07:28.942Z,16.90
2022-11-30T16:10:07.740Z,16.70
2022-11-30T16:12:35.475Z,16.58
2022-11-30T16:15:17.171Z,17.10
2022-11-30T16:17:45.310Z,17.17
2022-11-30T16:20:13.979Z,17.63
2022-11-30T16:22:46.471Z,16.33
2022-11-30T16:25:15.459Z,16.92
2022-11-30T16:27:43.637Z,18.00
2022-11-30T16:30:15.391Z,18.27
2022-11-30T16:32:43.309Z,17.70
2022-11-30T16:35:14.230Z,18.10
2022-11-30T16:37:42.182Z,17.15
2022-11-30T16:40:10.030Z,19.83
2022-11-30T16:42:37.941Z,20.10
2022-11-30T16:45:05.880Z,19.20
2022-11-30T16:47:34.898Z,19.92
2022-11-30T16:50:03.708Z,19.85
2022-11-30T16:52:35.289Z,19.67
2022-11-30T16:55:04.249Z,19.20
2022-11-30T16:57:32.400Z,19.77
2022-11-30T17:00:00.109Z,19.77
2022-11-30T17:02:28.961Z,19.63
2022-11-30T17:05:00.512Z,19.17
2022-11-30T17:07:34.679Z,19.42
2022-11-30T17:10:06.189Z,18.40
2022-11-30T17:12:35.940Z,18.33
2022-11-30T17:15:05.380Z,18.90
2022-11-30T17:17:34.718Z,18.80
2022-11-30T17:20:03.430Z,17.83
2022-11-30T17:22:33.895Z,18.60
2022-11-30T17:25:05.065Z,19.23
2022-11-30T17:27:33.738Z,18.70
2022-11-30T17:30:05.407Z,18.27
2022-11-30T17:32:33.663Z,19.15
2022-11-30T17:35:02.391Z,17.90
2022-11-30T17:37:32.387Z,17.50
2022-11-30T17:40:00.775Z,18.13
2022-11-30T17:42:28.495Z,17.92
2022-11-30T17:44:56.229Z,18.48
2022-11-30T17:47:23.845Z,19.00
2022-11-30T17:49:51.725Z,17.75
2022-11-30T17:52:19.385Z,18.17
2022-11-30T17:54:47.356Z,17.75
2022-11-30T17:57:15.327Z,17.00
2022-11-30T17:59:43.168Z,17.25
2022-11-30T18:02:11.663Z,18.10
2022-11-30T18:04:40.833Z,17.85
2022-11-30T18:07:08.634Z,18.67
2022-11-30T18:09:42.347Z,18.65
2022-11-30T18:12:10.790Z,19.20
2022-11-30T18:14:40.561Z,19.33
2022-11-30T18:17:08.353Z,20.65
2022-11-30T18:19:36.189Z,22.85
2022-11-30T18:22:04.642Z,22.17
2022-11-30T18:24:33.460Z,20.75
2022-11-30T18:27:02.396Z,22.38
2022-11-30T18:29:30.276Z,20.80
2022-11-30T18:31:58.178Z,22.27
2022-11-30T18:34:28.991Z,21.60
2022-11-30T18:36:56.479Z,22.15
2022-11-30T18:39:24.010Z,21.90
2022-11-30T18:41:51.703Z,22.67
2022-11-30T18:44:19.594Z,22.48
2022-11-30T18:46:47.040Z,22.42
2022-11-30T18:49:15.124Z,22.30
2022-11-30T18:51:42.922Z,21.98
2022-11-30T18:54:12.310Z,21.88
2022-11-30T18:56:40.265Z,24.20
2022-11-30T18:59:10.394Z,22.98
2022-11-30T19:01:38.012Z,24.50
2022-11-30T19:04:09.330Z,22.88
2022-11-30T19:06:38.739Z,23.23
2022-11-30T19:09:08.708Z,24.25
2022-11-30T19:11:37.522Z,26.13
2022-11-30T19:14:08.908Z,26.23
2022-11-30T19:16:37.210Z,25.48
2022-11-30T19:19:06.830Z,24.88
2022-11-30T19:21:35.341Z,24.40
2022-11-30T19:24:04.033Z,23.77
2022-11-30T19:26:36.950Z,23.83
2022-11-30T19:29:08.610Z,22.10
2022-11-30T19:31:36.428Z,23.98
2022-11-30T19:34:12.039Z,25.08
2022-11-30T19:36:41.961Z,24.63
2022-11-30T19:39:09.858Z,25.05
2022-11-30T19:41:37.424Z,24.95
2022-11-30T19:44:05.386Z,24.30
2022-11-30T19:46:34.734Z,24.88
2022-11-30T19:49:03.334Z,24.95
2022-11-30T19:51:32.994Z,23.23
2022-11-30T19:54:02.347Z,23.95
2022-11-30T19:56:31.954Z,23.63
2022-11-30T19:59:04.488Z,24.58
2022-11-30T20:01:36.758Z,24.52
2022-11-30T20:04:05.323Z,23.75
2022-11-30T20:06:36.002Z,23.95
2022-11-30T20:09:07.474Z,24.52
2022-11-30T20:11:35.734Z,24.73
2022-11-30T20:14:04.944Z,24.05
2022-11-30T20:16:33.389Z,23.23
2022-11-30T20:19:03.967Z,25.88
2022-11-30T20:21:34.202Z,24.50
2022-11-30T20:24:04.433Z,25.00
2022-11-30T20:26:34.503Z,24.40
2022-11-30T20:29:05.544Z,24.95
2022-11-30T20:31:34.996Z,25.58
2022-11-30T20:34:03.806Z,24.80
2022-11-30T20:36:33.976Z,24.60
2022-11-30T20:39:03.249Z,24.58
2022-11-30T20:41:35.327Z,25.73
2022-11-30T20:44:04.655Z,24.75
2022-11-30T20:46:36.308Z,26.17
2022-11-30T20:49:05.696Z,26.20
2022-11-30T20:51:35.110Z,26.80
2022-11-30T20:54:05.788Z,27.30
2022-11-30T20:56:37.224Z,25.50
2022-11-30T20:59:06.684Z,24.92
2022-11-30T21:01:35.748Z,26.55
2022-11-30T21:04:04.843Z,26.83
2022-11-30T21:06:33.909Z,26.95
2022-11-30T21:09:03.565Z,26.92
2022-11-30T21:11:32.685Z,28.23
2022-11-30T21:14:01.007Z,26.17
2022-11-30T21:16:30.057Z,26.17
2022-11-30T21:18:58.904Z,27.27
2022-11-30T21:21:28.509Z,27.73
2022-11-30T21:23:58.838Z,26.98
2022-11-30T21:26:28.298Z,29.10
2022-11-30T21:28:59.653Z,27.92
2022-11-30T21:31:27.624Z,28.55
2022-11-30T21:33:55.778Z,29.38
2022-11-30T21:36:23.623Z,29.08
2022-11-30T21:39:04.954Z,27.80
2022-11-30T21:41:39.087Z,28.52
2022-11-30T21:44:08.226Z,29.88
2022-11-30T21:46:36.827Z,27.42
2022-11-30T21:49:05.114Z,29.05
2022-11-30T21:51:34.004Z,29.88
2022-11-30T21:54:03.756Z,27.50
2022-11-30T21:56:38.136Z,27.73
2022-11-30T21:59:07.477Z,28.27
2022-11-30T22:01:39.901Z,26.63
2022-11-30T22:04:08.499Z,26.77
2022-11-30T22:06:36.970Z,27.17
2022-11-30T22:09:08.396Z,25.63
2022-11-30T22:11:37.509Z,27.05
2022-11-30T22:14:05.532Z,27.75
2022-11-30T22:16:36.378Z,27.63
2022-11-30T22:19:05.256Z,28.58
2022-11-30T22:21:34.033Z,27.65
2022-11-30T22:24:05.509Z,28.60
2022-11-30T22:26:36.046Z,29.05
2022-11-30T22:29:15.767Z,30.02
2022-11-30T22:31:44.347Z,29.55
2022-11-30T22:34:12.225Z,30.45
2022-11-30T22:36:42.376Z,30.92
2022-11-30T22:39:20.481Z,31.08
2022-11-30T22:41:55.076Z,31.63
2022-11-30T22:44:23.906Z,31.52
2022-11-30T22:46:51.779Z,36.47
2022-11-30T22:49:21.487Z,34.83
2022-11-30T22:51:49.882Z,31.20
2022-11-30T22:54:17.899Z,30.33
2022-11-30T22:56:46.989Z,31.27
2022-11-30T22:59:15.780Z,29.95
2022-11-30T23:01:45.712Z,29.50
2022-11-30T23:04:14.738Z,28.80
2022-11-30T23:06:44.329Z,30.80
2022-11-30T23:09:13.290Z,27.80
2022-11-30T23:11:41.228Z,29.13
2022-11-30T23:14:09.981Z,31.67
2022-11-30T23:16:37.780Z,30.27
2022-11-30T23:19:06.096Z,29.45
2022-11-30T23:21:40.555Z,28.40
2022-11-30T23:24:10.895Z,29.73
2022-11-30T23:26:39.515Z,29.35
2022-11-30T23:29:08.952Z,32.05
2022-11-30T23:31:37.604Z,28.77
2022-11-30T23:34:06.389Z,30.85
2022-11-30T23:36:34.759Z,30.63
2022-11-30T23:39:07.492Z,29.98
2022-11-30T23:41:35.112Z,31.02
2022-11-30T23:44:05.748Z,30.40
2022-11-30T23:46:34.107Z,29.73
2022-11-30T23:49:03.365Z,30.25
2022-11-30T23:51:30.817Z,30.58
2022-11-30T23:53:58.385Z,30.73
2022-11-30T23:56:25.948Z,31.55
2022-11-30T23:58:54.100Z,30.35
